Time;durP1;ratioP1;P1;durP2;ratioP2;P2;SDS_P1;SDS_P2;PMS_P1;PMS_P2;Temp;Humidity;BMP_temperature;BMP_pressure;BME280_temperature;BME280_humidity;BME280_pressure;Samples;Min_cycle;Max_cycle;Signal;HPM_P1;HPM_P2
2023/09/24 00:00:20;;;;;;;6.83;3.57;;;13.20;70.30;;;;;;4799171;29;20228;-30
2023/09/24 00:02:49;;;;;;;7.33;3.30;;;13.20;70.30;;;;;;4797734;29;20720;-30
2023/09/24 00:05:17;;;;;;;4.87;2.97;;;13.10;70.30;;;;;;4798172;29;20825;-30
2023/09/24 00:07:44;;;;;;;5.57;3.13;;;13.10;70.30;;;;;;4797750;29;20715;-30
2023/09/24 00:10:11;;;;;;;9.10;3.90;;;13.10;70.40;;;;;;4798870;29;20704;-30
2023/09/24 00:12:39;;;;;;;6.90;3.97;;;13.10;70.40;;;;;;4782669;29;20653;-30
2023/09/24 00:15:07;;;;;;;7.70;4.00;;;13.10;70.40;;;;;;4797292;29;20245;-30
2023/09/24 00:17:36;;;;;;;6.40;3.30;;;13.00;70.30;;;;;;4782613;29;20288;-30
2023/09/24 00:20:04;;;;;;;5.77;3.10;;;13.00;70.30;;;;;;4800739;29;20297;-30
2023/09/24 00:22:31;;;;;;;5.13;3.67;;;13.00;70.30;;;;;;4802512;29;20212;-30
2023/09/24 00:24:58;;;;;;;6.53;3.70;;;13.00;70.40;;;;;;4801094;29;20312;-30
2023/09/24 00:27:25;;;;;;;6.50;3.90;;;13.00;70.40;;;;;;4801200;29;20761;-30
2023/09/24 00:29:55;;;;;;;7.30;4.30;;;12.90;70.40;;;;;;4800913;29;20291;-30
2023/09/24 00:32:22;;;;;;;8.50;4.77;;;12.90;70.40;;;;;;4801099;29;20204;-30
2023/09/24 00:34:52;;;;;;;5.93;3.67;;;12.90;70.40;;;;;;4802240;29;20223;-30
2023/09/24 00:37:19;;;;;;;10.17;3.73;;;12.90;70.40;;;;;;4801232;29;20645;-30
2023/09/24 00:39:51;;;;;;;7.10;3.93;;;12.90;70.40;;;;;;4801044;29;20680;-30
2023/09/24 00:42:19;;;;;;;7.97;4.00;;;12.90;70.40;;;;;;4802648;29;20295;-30
2023/09/24 00:44:48;;;;;;;7.83;4.00;;;12.90;70.40;;;;;;4802379;29;20326;-30
2023/09/24 00:47:18;;;;;;;8.80;3.83;;;12.80;70.30;;;;;;4786894;29;20208;-30
2023/09/24 00:49:46;;;;;;;6.93;4.37;;;12.80;70.30;;;;;;4802044;29;20764;-30
2023/09/24 00:52:13;;;;;;;6.97;3.87;;;12.80;70.30;;;;;;4800723;29;20217;-30
2023/09/24 00:54:43;;;;;;;7.33;3.53;;;12.70;70.40;;;;;;4800468;29;20217;-30
2023/09/24 00:57:11;;;;;;;5.90;3.70;;;12.70;70.30;;;;;;4800832;29;20233;-30
2023/09/24 00:59:38;;;;;;;7.83;3.67;;;12.70;70.40;;;;;;4798646;29;20824;-30
2023/09/24 01:02:11;;;;;;;6.07;3.83;;;12.70;71.10;;;;;;4800374;29;20651;-30
2023/09/24 01:04:42;;;;;;;6.67;3.73;;;12.70;70.40;;;;;;4800503;29;20658;-30
2023/09/24 01:07:09;;;;;;;7.00;3.87;;;12.60;70.30;;;;;;4801477;29;20293;-30
2023/09/24 01:09:38;;;;;;;6.90;3.70;;;12.60;70.30;;;;;;4801690;29;20240;-30
2023/09/24 01:12:21;;;;;;;4.93;3.70;;;12.60;70.40;;;;;;4801403;29;20221;-30
2023/09/24 01:14:49;;;;;;;8.77;3.83;;;12.50;70.40;;;;;;4801267;29;20272;-30
2023/09/24 01:17:20;;;;;;;6.80;3.20;;;12.50;70.40;;;;;;4800168;29;20205;-30
2023/09/24 01:19:50;;;;;;;6.27;3.97;;;12.50;70.40;;;;;;4800359;29;20216;-30
2023/09/24 01:22:19;;;;;;;7.53;3.80;;;12.50;70.40;;;;;;4814843;29;20316;-30
2023/09/24 01:24:46;;;;;;;7.47;4.87;;;12.40;70.40;;;;;;4799911;29;20244;-30
2023/09/24 01:27:14;;;;;;;8.00;4.67;;;12.40;70.40;;;;;;4801421;29;20759;-30
2023/09/24 01:29:42;;;;;;;10.27;4.57;;;12.40;70.40;;;;;;4784322;29;20693;-30
2023/09/24 01:32:11;;;;;;;8.40;4.27;;;12.40;70.50;;;;;;4801030;29;20677;-30
2023/09/24 01:34:41;;;;;;;5.93;4.17;;;12.40;70.50;;;;;;4799796;29;20212;-30
2023/09/24 01:37:08;;;;;;;8.50;4.37;;;12.40;70.50;;;;;;4800304;29;20289;-30
2023/09/24 01:39:36;;;;;;;7.60;3.83;;;12.30;70.50;;;;;;4801357;29;20244;-30
2023/09/24 01:42:07;;;;;;;7.83;4.00;;;12.30;70.50;;;;;;4814991;29;20243;-30
2023/09/24 01:44:37;;;;;;;5.73;4.17;;;12.30;70.50;;;;;;4801399;29;20294;-30
2023/09/24 01:47:04;;;;;;;6.53;4.10;;;12.30;71.30;;;;;;4801415;29;20545;-31
2023/09/24 01:49:34;;;;;;;7.83;3.53;;;12.20;70.50;;;;;;4801040;29;20225;-30
2023/09/24 01:52:03;;;;;;;7.70;3.90;;;12.20;70.50;;;;;;4784874;29;20215;-30
2023/09/24 01:54:30;;;;;;;10.23;4.27;;;12.20;70.50;;;;;;4801783;29;20324;-30
2023/09/24 01:56:58;;;;;;;5.90;4.00;;;12.20;70.60;;;;;;4800120;29;20540;-30
2023/09/24 01:59:27;;;;;;;9.50;3.90;;;12.20;70.50;;;;;;4801363;29;20219;-30
2023/09/24 02:01:55;;;;;;;7.17;4.33;;;12.20;70.60;;;;;;4785020;29;20555;-30
2023/09/24 02:04:22;;;;;;;8.40;3.53;;;12.10;70.60;;;;;;4814575;29;20225;-30
2023/09/24 02:06:49;;;;;;;7.53;3.43;;;12.10;70.60;;;;;;4800895;29;20301;-30
2023/09/24 02:09:16;;;;;;;9.23;4.67;;;12.10;70.60;;;;;;4814463;29;20765;-30
2023/09/24 02:11:44;;;;;;;6.90;4.07;;;12.10;70.60;;;;;;4799049;29;20314;-30
2023/09/24 02:14:12;;;;;;;8.40;4.00;;;12.10;70.60;;;;;;4800590;29;20752;-30
2023/09/24 02:16:42;;;;;;;7.67;4.83;;;12.10;70.60;;;;;;4814039;29;20301;-30
2023/09/24 02:19:15;;;;;;;8.73;4.67;;;12.10;70.60;;;;;;4801490;29;20300;-30
2023/09/24 02:21:42;;;;;;;6.90;3.60;;;12.00;70.60;;;;;;4814090;29;20229;-30
2023/09/24 02:24:10;;;;;;;9.40;4.17;;;12.00;70.70;;;;;;4800928;29;20768;-30
2023/09/24 02:26:39;;;;;;;6.70;3.30;;;12.00;70.70;;;;;;4800555;29;20299;-30
2023/09/24 02:29:07;;;;;;;7.97;4.30;;;12.00;70.60;;;;;;4814070;29;20232;-30
2023/09/24 02:31:34;;;;;;;7.23;4.10;;;12.00;70.70;;;;;;4799065;29;20700;-30
2023/09/24 02:34:01;;;;;;;9.73;4.10;;;12.00;70.70;;;;;;4784951;29;20201;-30
2023/09/24 02:36:29;;;;;;;7.53;4.07;;;12.00;70.70;;;;;;4814121;29;20259;-30
2023/09/24 02:38:58;;;;;;;12.80;5.13;;;11.90;70.60;;;;;;4813863;29;20229;-30
2023/09/24 02:41:25;;;;;;;9.60;4.93;;;11.90;70.70;;;;;;4798647;29;20285;-30
2023/09/24 02:43:54;;;;;;;8.70;4.63;;;11.90;70.70;;;;;;4800169;29;20448;-30
2023/09/24 02:46:26;;;;;;;6.30;3.93;;;11.90;70.70;;;;;;4800325;29;20237;-30
2023/09/24 02:48:58;;;;;;;7.30;4.33;;;11.90;70.70;;;;;;4800281;29;20725;-30
2023/09/24 02:51:28;;;;;;;12.23;4.90;;;11.90;70.70;;;;;;4813757;29;20240;-30
2023/09/24 02:53:55;;;;;;;10.70;5.40;;;11.90;70.70;;;;;;4800233;29;20632;-30
2023/09/24 02:56:22;;;;;;;10.13;4.63;;;11.80;70.70;;;;;;4798656;29;20213;-30
2023/09/24 02:58:50;;;;;;;6.17;4.13;;;11.80;70.70;;;;;;4813575;29;20205;-30
2023/09/24 03:01:20;;;;;;;6.07;4.23;;;11.80;70.70;;;;;;4798444;29;20213;-30
2023/09/24 03:03:50;;;;;;;8.73;3.87;;;11.80;70.70;;;;;;4798338;29;20725;-30
2023/09/24 03:06:20;;;;;;;10.43;4.50;;;11.80;70.70;;;;;;4800232;29;20294;-30
2023/09/24 03:08:49;;;;;;;7.63;4.37;;;11.80;70.70;;;;;;4800001;29;20348;-30
2023/09/24 03:11:16;;;;;;;5.57;3.97;;;11.80;70.70;;;;;;4799093;29;20490;-30
2023/09/24 03:13:43;;;;;;;8.07;4.50;;;11.70;70.70;;;;;;4798606;29;20217;-31
2023/09/24 03:16:10;;;;;;;9.43;4.30;;;11.70;70.70;;;;;;4799945;29;20214;-30
2023/09/24 03:18:38;;;;;;;10.03;4.67;;;11.70;70.70;;;;;;4799806;29;20209;-30
2023/09/24 03:21:05;;;;;;;11.03;4.57;;;11.70;70.70;;;;;;4813184;29;20295;-30
2023/09/24 03:23:36;;;;;;;7.17;4.63;;;11.60;70.70;;;;;;4813409;29;20252;-30
2023/09/24 03:26:03;;;;;;;7.00;4.10;;;11.60;70.70;;;;;;4783880;29;20209;-30
2023/09/24 03:28:31;;;;;;;6.10;4.17;;;11.60;70.80;;;;;;4813166;29;20273;-30
2023/09/24 03:30:58;;;;;;;9.70;5.17;;;11.60;70.80;;;;;;4797900;29;20236;-30
2023/09/24 03:33:26;;;;;;;11.23;5.00;;;11.60;71.00;;;;;;4799999;29;20645;-30
2023/09/24 03:35:53;;;;;;;8.80;4.13;;;11.60;70.90;;;;;;4813229;29;20312;-30
2023/09/24 03:38:21;;;;;;;8.63;4.87;;;11.50;70.80;;;;;;4813243;29;20736;-30
2023/09/24 03:40:51;;;;;;;8.63;5.33;;;11.50;70.80;;;;;;4797924;29;20270;-30
2023/09/24 03:43:18;;;;;;;8.40;4.50;;;11.50;70.90;;;;;;4783005;29;20845;-30
2023/09/24 03:45:45;;;;;;;7.87;4.80;;;11.50;70.90;;;;;;4813041;29;20731;-30
2023/09/24 03:48:15;;;;;;;13.07;4.90;;;11.50;70.90;;;;;;4799752;29;20744;-30
2023/09/24 03:50:43;;;;;;;9.77;4.77;;;11.50;70.90;;;;;;4813068;29;20277;-30
2023/09/24 03:53:12;;;;;;;8.77;4.50;;;11.50;70.90;;;;;;4799359;29;20696;-30
2023/09/24 03:55:45;;;;;;;12.80;4.83;;;11.50;71.00;;;;;;4799392;29;20630;-30
2023/09/24 03:58:12;;;;;;;10.43;5.03;;;11.50;71.00;;;;;;4812763;29;20217;-30
2023/09/24 04:00:42;;;;;;;10.47;4.77;;;11.50;71.00;;;;;;4797423;29;20208;-30
2023/09/24 04:03:09;;;;;;;16.67;4.97;;;11.50;71.00;;;;;;4812645;29;20293;-30
2023/09/24 04:05:39;;;;;;;6.77;4.00;;;11.40;71.00;;;;;;4799039;29;20466;-30
2023/09/24 04:08:07;;;;;;;7.47;4.63;;;11.40;71.00;;;;;;4797617;29;20680;-33
2023/09/24 04:10:37;;;;;;;10.20;4.90;;;11.40;71.00;;;;;;4797171;29;20309;-33
2023/09/24 04:13:04;;;;;;;6.83;4.67;;;11.40;71.00;;;;;;4799053;29;20299;-33
2023/09/24 04:15:32;;;;;;;10.77;5.53;;;11.40;71.00;;;;;;4812612;29;20248;-32
2023/09/24 04:18:02;;;;;;;10.63;5.30;;;11.40;71.00;;;;;;4798815;29;20209;-33
2023/09/24 04:20:33;;;;;;;9.80;4.77;;;11.40;71.00;;;;;;4797802;29;20582;-33
2023/09/24 04:23:01;;;;;;;12.03;4.90;;;11.40;71.10;;;;;;4797324;29;20320;-33
2023/09/24 04:25:29;;;;;;;11.77;7.50;;;11.40;71.10;;;;;;4783532;29;20220;-33
2023/09/24 04:27:59;;;;;;;9.47;5.60;;;11.40;71.10;;;;;;4799084;29;20277;-33
2023/09/24 04:30:27;;;;;;;9.93;4.80;;;11.40;71.20;;;;;;4799336;29;20201;-33
2023/09/24 04:32:56;;;;;;;8.50;4.67;;;11.40;71.10;;;;;;4812598;29;20785;-33
2023/09/24 04:35:27;;;;;;;12.57;5.63;;;11.40;71.20;;;;;;4797419;29;20669;-33
2023/09/24 04:37:58;;;;;;;11.63;5.43;;;11.30;71.10;;;;;;4798772;29;20220;-33
2023/09/24 04:40:27;;;;;;;11.23;5.17;;;11.30;71.10;;;;;;4798697;29;20228;-33
2023/09/24 04:42:55;;;;;;;10.07;4.60;;;11.30;71.10;;;;;;4798880;29;20293;-33
2023/09/24 04:45:22;;;;;;;9.93;5.00;;;11.30;71.20;;;;;;4798736;29;20701;-32
2023/09/24 04:47:51;;;;;;;8.87;5.03;;;11.30;71.20;;;;;;4782327;29;20209;-32
2023/09/24 04:50:19;;;;;;;8.50;4.63;;;11.30;71.20;;;;;;4812398;29;20603;-32
2023/09/24 04:52:47;;;;;;;9.50;5.13;;;11.30;71.20;;;;;;4812344;29;20708;-32
2023/09/24 04:55:16;;;;;;;9.93;4.77;;;11.30;71.20;;;;;;4812048;29;20209;-32
2023/09/24 04:57:45;;;;;;;8.10;4.63;;;11.30;71.20;;;;;;4797215;29;20610;-32
2023/09/24 05:00:14;;;;;;;8.70;4.80;;;11.30;71.20;;;;;;4812064;29;20220;-32
2023/09/24 05:02:42;;;;;;;7.37;4.53;;;11.30;71.20;;;;;;4812268;29;20836;-32
2023/09/24 05:05:10;;;;;;;9.07;4.17;;;11.30;71.20;;;;;;4814076;29;21015;-32
2023/09/24 05:07:37;;;;;;;10.57;4.73;;;11.30;71.20;;;;;;4800787;29;20253;-32
2023/09/24 05:10:06;;;;;;;10.70;5.37;;;11.20;71.20;;;;;;4802145;29;20668;-32
2023/09/24 05:12:35;;;;;;;9.47;5.30;;;11.20;71.20;;;;;;4800301;29;20233;-32
2023/09/24 05:15:03;;;;;;;12.90;5.07;;;11.20;71.20;;;;;;4800312;29;20232;-32
2023/09/24 05:17:34;;;;;;;8.37;4.37;;;11.20;71.20;;;;;;4801558;29;20907;-29
2023/09/24 05:20:05;;;;;;;10.27;4.80;;;11.20;71.20;;;;;;4800543;29;20622;-29
2023/09/24 05:22:32;;;;;;;10.40;5.20;;;11.20;71.20;;;;;;4801729;29;20221;-29
2023/09/24 05:24:59;;;;;;;8.00;4.43;;;11.20;71.20;;;;;;4785682;29;20657;-29
2023/09/24 05:27:29;;;;;;;7.67;4.30;;;11.20;71.20;;;;;;4801994;29;20278;-29
2023/09/24 05:29:56;;;;;;;11.10;6.07;;;11.20;71.30;;;;;;4801908;29;20261;-29
2023/09/24 05:32:26;;;;;;;10.07;6.17;;;11.10;71.20;;;;;;4800573;29;20229;-29
2023/09/24 05:34:58;;;;;;;10.97;5.00;;;11.10;71.20;;;;;;4815096;29;20295;-29
2023/09/24 05:37:25;;;;;;;8.90;4.83;;;11.10;71.20;;;;;;4801596;29;20209;-33
2023/09/24 05:39:52;;;;;;;8.80;4.73;;;11.10;71.30;;;;;;4801903;29;20292;-29
2023/09/24 05:42:20;;;;;;;11.13;5.30;;;11.10;71.30;;;;;;4801258;29;20308;-29
2023/09/24 05:44:49;;;;;;;9.87;4.83;;;11.10;71.30;;;;;;4801341;29;20692;-31
2023/09/24 05:47:19;;;;;;;11.27;4.90;;;11.10;71.30;;;;;;4801706;29;20209;-29
2023/09/24 05:49:48;;;;;;;9.87;4.60;;;11.10;71.30;;;;;;4801012;29;20241;-29
2023/09/24 05:52:16;;;;;;;10.03;4.63;;;11.10;71.30;;;;;;4800966;29;20232;-29
2023/09/24 05:54:43;;;;;;;13.80;5.87;;;11.00;71.30;;;;;;4814315;29;20205;-29
2023/09/24 05:57:11;;;;;;;11.73;5.90;;;11.00;71.30;;;;;;4801394;29;20613;-29
2023/09/24 05:59:40;;;;;;;10.37;5.50;;;11.00;71.40;;;;;;4799373;29;20221;-29
2023/09/24 06:02:10;;;;;;;8.90;4.80;;;11.00;71.40;;;;;;4800859;29;20216;-29
2023/09/24 06:04:38;;;;;;;8.60;4.60;;;11.00;71.40;;;;;;4800853;29;20502;-29
2023/09/24 06:07:07;;;;;;;9.70;5.30;;;11.00;71.40;;;;;;4814265;29;20606;-30
2023/09/24 06:09:37;;;;;;;10.80;4.30;;;11.00;71.40;;;;;;4800886;29;20301;-29
2023/09/24 06:12:04;;;;;;;10.30;4.33;;;11.00;71.50;;;;;;4799453;29;20650;-30
2023/09/24 06:14:31;;;;;;;10.23;5.83;;;11.00;71.50;;;;;;4799379;29;20224;-29
2023/09/24 06:16:58;;;;;;;9.03;5.00;;;11.00;71.60;;;;;;4814197;29;20205;-29
2023/09/24 06:19:26;;;;;;;12.97;4.30;;;11.00;71.60;;;;;;4800941;29;20209;-29
2023/09/24 06:21:55;;;;;;;9.07;4.20;;;11.00;71.60;;;;;;4814203;29;20228;-30
2023/09/24 06:24:23;;;;;;;11.23;4.73;;;11.10;71.70;;;;;;4800722;29;20577;-29
2023/09/24 06:26:51;;;;;;;10.50;4.40;;;11.10;71.70;;;;;;4799310;29;20212;-29
2023/09/24 06:29:18;;;;;;;10.33;6.00;;;11.10;71.70;;;;;;4800723;29;20217;-29
2023/09/24 06:31:47;;;;;;;9.23;5.03;;;11.10;71.80;;;;;;4800237;29;20229;-29
2023/09/24 06:34:14;;;;;;;12.63;5.03;;;11.10;71.80;;;;;;4800342;29;20228;-30
2023/09/24 06:36:41;;;;;;;8.33;4.43;;;11.10;71.80;;;;;;4798635;29;20229;-29
2023/09/24 06:39:10;;;;;;;7.13;4.63;;;11.10;71.80;;;;;;4799211;29;20216;-29
2023/09/24 06:41:40;;;;;;;8.67;4.30;;;11.10;72.50;;;;;;4799141;29;20231;-29
2023/09/24 06:44:11;;;;;;;8.13;4.23;;;11.10;71.80;;;;;;4800155;29;20260;-29
2023/09/24 06:46:38;;;;;;;10.53;4.97;;;11.20;71.90;;;;;;4813946;29;20240;-29
2023/09/24 06:49:05;;;;;;;10.40;5.43;;;11.20;71.90;;;;;;4800082;29;20695;-29
2023/09/24 06:51:33;;;;;;;10.53;4.90;;;11.20;72.00;;;;;;4800267;29;20236;-29
2023/09/24 06:54:00;;;;;;;10.47;4.50;;;11.20;72.00;;;;;;4800877;29;20776;-29
2023/09/24 06:56:29;;;;;;;9.10;4.70;;;11.30;72.10;;;;;;4800209;29;20248;-29
2023/09/24 06:58:59;;;;;;;9.63;4.67;;;11.30;72.10;;;;;;4800048;29;20307;-29
2023/09/24 07:01:26;;;;;;;10.20;4.70;;;11.30;72.20;;;;;;4799846;29;20213;-29
2023/09/24 07:03:56;;;;;;;8.87;4.13;;;11.30;72.10;;;;;;4783737;29;20209;-29
2023/09/24 07:06:26;;;;;;;10.23;4.00;;;11.40;72.20;;;;;;4800110;29;20734;-30
2023/09/24 07:08:54;;;;;;;8.70;4.20;;;11.40;72.20;;;;;;4798951;29;20221;-29
2023/09/24 07:11:24;;;;;;;7.17;3.60;;;11.40;72.20;;;;;;4799571;29;20229;-29
2023/09/24 07:13:54;;;;;;;7.43;3.50;;;11.50;72.30;;;;;;4813316;29;20204;-29
2023/09/24 07:16:25;;;;;;;6.80;3.10;;;11.50;72.40;;;;;;4798423;29;20216;-29
2023/09/24 07:18:54;;;;;;;6.87;3.23;;;11.60;72.50;;;;;;4799610;29;20220;-29
2023/09/24 07:21:24;;;;;;;6.10;3.60;;;11.60;72.50;;;;;;4798259;29;20820;-29
2023/09/24 07:24:02;;;;;;;6.30;3.40;;;11.70;72.70;;;;;;4799493;29;20217;-29
2023/09/24 07:26:30;;;;;;;5.50;3.20;;;11.70;72.60;;;;;;4798528;29;20213;-29
2023/09/24 07:29:00;;;;;;;8.37;3.27;;;11.80;72.70;;;;;;4799251;29;20201;-32
2023/09/24 07:31:28;;;;;;;6.40;2.70;;;11.80;72.70;;;;;;4799368;29;20610;-32
2023/09/24 07:33:59;;;;;;;5.90;2.83;;;11.90;72.80;;;;;;4798191;29;20219;-32
2023/09/24 07:36:29;;;;;;;5.17;2.53;;;12.00;72.80;;;;;;4797786;29;20504;-32
2023/09/24 07:39:03;;;;;;;5.60;2.57;;;12.00;72.80;;;;;;4783513;29;20357;-32
2023/09/24 07:41:33;;;;;;;5.10;2.60;;;12.10;72.90;;;;;;4799180;29;20217;-32
2023/09/24 07:44:03;;;;;;;6.20;2.30;;;12.20;72.90;;;;;;4783116;29;20340;-32
2023/09/24 07:46:31;;;;;;;8.60;2.87;;;12.20;72.90;;;;;;4798853;29;20317;-32
2023/09/24 07:49:03;;;;;;;3.43;2.07;;;12.30;73.00;;;;;;4799121;29;20228;-32
2023/09/24 07:51:31;;;;;;;5.67;2.60;;;12.30;72.90;;;;;;4798815;29;20319;-32
2023/09/24 07:54:06;;;;;;;4.00;2.07;;;12.40;73.00;;;;;;4797520;29;20216;-32
2023/09/24 07:56:41;;;;;;;5.87;2.70;;;12.50;73.00;;;;;;4798924;29;20244;-32
2023/09/24 07:59:12;;;;;;;5.63;2.10;;;12.60;73.00;;;;;;4797764;29;20582;-32
2023/09/24 08:01:39;;;;;;;5.43;2.30;;;12.60;73.00;;;;;;4797582;29;20209;-32
2023/09/24 08:04:08;;;;;;;5.70;2.10;;;12.70;73.10;;;;;;4813238;29;20217;-32
2023/09/24 08:06:35;;;;;;;5.17;1.67;;;12.70;73.10;;;;;;4798056;29;20217;-32
2023/09/24 08:09:05;;;;;;;7.03;2.23;;;12.80;73.20;;;;;;4812751;29;20704;-32
2023/09/24 08:11:55;;;;;;;4.50;2.10;;;12.90;73.20;;;;;;4798823;29;20233;-32
2023/09/24 08:14:25;;;;;;;5.07;1.90;;;12.90;73.10;;;;;;4798908;29;20262;-32
2023/09/24 08:16:53;;;;;;;4.00;1.57;;;13.00;73.20;;;;;;4797456;29;20222;-32
2023/09/24 08:19:26;;;;;;;3.53;1.87;;;13.10;73.40;;;;;;4812406;29;20205;-31
2023/09/24 08:21:53;;;;;;;4.13;1.90;;;13.20;73.40;;;;;;4797368;29;20675;-32
2023/09/24 08:24:20;;;;;;;3.03;1.87;;;13.20;73.40;;;;;;4797227;29;20297;-32
2023/09/24 08:26:47;;;;;;;3.63;1.97;;;13.30;73.40;;;;;;4812580;29;20749;-32
2023/09/24 08:29:17;;;;;;;3.10;1.43;;;13.40;73.50;;;;;;4798774;29;20212;-32
2023/09/24 08:31:44;;;;;;;6.20;1.90;;;13.40;73.60;;;;;;4796980;29;20237;-32
2023/09/24 08:34:15;;;;;;;5.00;1.90;;;13.50;73.70;;;;;;4798738;29;20215;-32
2023/09/24 08:36:42;;;;;;;4.67;2.13;;;13.60;73.60;;;;;;4798684;29;20326;-32
2023/09/24 08:39:09;;;;;;;3.63;1.83;;;13.70;73.70;;;;;;4799694;29;20209;-32
2023/09/24 08:41:44;;;;;;;6.27;1.80;;;13.80;73.80;;;;;;4803291;29;20627;-32
2023/09/24 08:44:19;;;;;;;3.87;1.60;;;13.80;73.90;;;;;;4802621;29;20242;-32
2023/09/24 08:46:48;;;;;;;3.60;1.50;;;13.90;73.80;;;;;;4802298;29;20501;-32
2023/09/24 08:49:17;;;;;;;4.20;1.53;;;14.00;73.90;;;;;;4802633;29;20205;-35
2023/09/24 08:51:46;;;;;;;5.50;1.70;;;14.10;73.90;;;;;;4801939;29;20239;-32
2023/09/24 08:54:14;;;;;;;5.70;1.77;;;14.10;73.90;;;;;;4802752;29;20209;-32
2023/09/24 08:56:42;;;;;;;6.20;1.87;;;14.30;74.00;;;;;;4800998;29;20221;-32
2023/09/24 08:59:12;;;;;;;4.40;1.90;;;14.30;74.00;;;;;;4801908;29;20649;-32
2023/09/24 09:01:39;;;;;;;4.60;1.47;;;14.40;73.90;;;;;;4802076;29;20291;-33
2023/09/24 09:04:09;;;;;;;4.57;1.73;;;14.50;74.00;;;;;;4802414;29;20216;-32
2023/09/24 09:06:36;;;;;;;3.20;1.73;;;14.50;74.10;;;;;;4801790;29;20205;-32
2023/09/24 09:09:06;;;;;;;5.63;1.20;;;14.60;74.00;;;;;;4815533;29;20209;-32
2023/09/24 09:11:46;;;;;;;2.97;1.17;;;14.70;74.10;;;;;;4800361;29;20588;-31
2023/09/24 09:14:31;;;;;;;5.13;1.60;;;14.80;74.00;;;;;;4801857;29;20234;-32
2023/09/24 09:16:59;;;;;;;4.10;1.60;;;14.90;74.10;;;;;;4800591;29;20423;-32
2023/09/24 09:19:28;;;;;;;4.20;1.60;;;14.90;74.00;;;;;;4815024;29;20215;-32
2023/09/24 09:21:55;;;;;;;3.50;1.63;;;15.00;74.10;;;;;;4801575;29;20224;-32
2023/09/24 09:24:26;;;;;;;5.67;1.60;;;15.10;74.10;;;;;;4801552;29;20212;-32
2023/09/24 09:26:55;;;;;;;5.40;1.77;;;15.20;74.10;;;;;;4814959;29;20711;-35
2023/09/24 09:29:29;;;;;;;5.83;1.60;;;15.20;74.00;;;;;;4800089;29;20759;-32
2023/09/24 09:31:57;;;;;;;6.20;1.60;;;15.30;73.90;;;;;;4801408;29;20233;-32
2023/09/24 09:34:29;;;;;;;5.47;1.30;;;15.40;73.80;;;;;;4801261;29;20741;-32
2023/09/24 09:37:16;;;;;;;4.77;1.37;;;15.40;73.80;;;;;;4801447;29;20384;-32
2023/09/24 09:39:45;;;;;;;4.20;1.70;;;15.50;73.80;;;;;;4801755;29;20229;-32
2023/09/24 09:42:19;;;;;;;3.87;1.33;;;15.60;73.70;;;;;;4814704;29;20370;-32
2023/09/24 09:44:50;;;;;;;4.57;1.30;;;15.60;73.80;;;;;;4814513;29;20784;-34
2023/09/24 09:47:21;;;;;;;3.80;0.97;;;15.70;73.70;;;;;;4801448;29;20217;-35
2023/09/24 09:49:58;;;;;;;5.90;1.70;;;15.70;73.70;;;;;;4815053;29;20241;-35
2023/09/24 09:52:36;;;;;;;3.07;1.40;;;15.80;73.70;;;;;;4800689;29;20228;-33
2023/09/24 09:55:05;;;;;;;5.30;1.47;;;15.80;73.70;;;;;;4800073;29;20291;-32
2023/09/24 09:57:33;;;;;;;3.83;1.60;;;15.90;73.70;;;;;;4801014;29;20213;-31
2023/09/24 10:00:05;;;;;;;3.80;1.50;;;15.90;73.70;;;;;;4814547;29;20236;-32
2023/09/24 10:02:36;;;;;;;4.53;1.57;;;16.00;73.70;;;;;;4800724;29;20215;-32
2023/09/24 10:05:05;;;;;;;2.97;1.57;;;16.00;73.60;;;;;;4801106;29;20228;-33
2023/09/24 10:07:42;;;;;;;4.07;1.40;;;16.10;73.60;;;;;;4814402;29;20205;-33
2023/09/24 10:10:31;;;;;;;4.30;1.17;;;16.10;73.60;;;;;;4800957;29;20286;-33
2023/09/24 10:13:04;;;;;;;6.17;1.87;;;16.20;73.40;;;;;;4814125;29;20237;-33
2023/09/24 10:15:33;;;;;;;3.30;1.23;;;16.20;73.40;;;;;;4814189;29;20308;-33
2023/09/24 10:18:07;;;;;;;4.73;1.53;;;16.30;73.50;;;;;;4814150;29;20217;-33
2023/09/24 10:20:49;;;;;;;2.90;1.47;;;16.30;73.50;;;;;;4801227;29;20672;-34
2023/09/24 10:23:29;;;;;;;5.27;1.77;;;16.40;74.20;;;;;;4801015;29;20232;-33
2023/09/24 10:25:59;;;;;;;2.50;0.90;;;16.40;73.50;;;;;;4813960;29;20729;-33
2023/09/24 10:29:02;;;;;;;3.63;1.37;;;16.50;73.40;;;;;;4799838;29;20265;-33
2023/09/24 10:31:29;;;;;;;6.03;1.40;;;16.50;73.40;;;;;;4815758;29;20269;-33
2023/09/24 10:34:00;;;;;;;3.33;1.20;;;16.60;73.30;;;;;;4803076;29;20299;-33
2023/09/24 10:36:33;;;;;;;4.93;1.37;;;16.60;73.30;;;;;;4799557;29;20212;-33
2023/09/24 10:39:08;;;;;;;2.87;1.40;;;16.70;73.30;;;;;;4800797;29;20324;-33
2023/09/24 10:41:36;;;;;;;4.73;1.50;;;16.70;73.10;;;;;;4800121;29;20220;-33
2023/09/24 10:44:31;;;;;;;4.43;1.80;;;16.80;73.30;;;;;;4798733;29;20344;-33
2023/09/24 10:47:30;;;;;;;3.23;1.43;;;16.80;73.10;;;;;;4800693;29;20591;-33
2023/09/24 10:50:18;;;;;;;2.80;1.40;;;16.90;73.20;;;;;;4800835;29;20194;-33
2023/09/24 10:52:59;;;;;;;3.63;1.10;;;16.90;73.10;;;;;;4798830;29;20498;-33
2023/09/24 10:58:03;;;;;;;3.27;1.77;;;17.00;73.10;;;;;;4800090;29;20231;-33
2023/09/24 11:00:32;;;;;;;7.40;1.70;;;17.10;73.10;;;;;;4799742;29;20278;-33
2023/09/24 11:03:05;;;;;;;5.40;1.60;;;17.10;73.00;;;;;;4800088;29;20209;-33
2023/09/24 11:05:45;;;;;;;2.80;1.50;;;17.10;73.00;;;;;;4800340;29;20260;-33
2023/09/24 11:08:14;;;;;;;6.07;1.70;;;17.20;73.00;;;;;;4799898;29;20233;-30
2023/09/24 11:10:46;;;;;;;3.73;1.23;;;17.20;72.90;;;;;;4813317;29;20209;-30
2023/09/24 11:13:13;;;;;;;2.37;1.13;;;17.20;72.80;;;;;;4798105;29;20233;-30
2023/09/24 11:15:43;;;;;;;3.43;1.30;;;17.30;72.70;;;;;;4812991;29;20285;-30
2023/09/24 11:18:16;;;;;;;4.87;1.57;;;17.30;72.70;;;;;;4799776;29;20763;-29
2023/09/24 11:20:53;;;;;;;2.83;1.30;;;17.40;72.40;;;;;;4798118;29;20582;-30
2023/09/24 11:23:23;;;;;;;4.10;1.53;;;17.40;72.50;;;;;;4798148;29;20744;-29
2023/09/24 11:25:53;;;;;;;2.37;1.30;;;17.50;72.50;;;;;;4799427;29;20228;-30
2023/09/24 11:28:30;;;;;;;3.13;1.20;;;17.50;72.50;;;;;;4799697;29;20266;-30
2023/09/24 11:31:00;;;;;;;2.77;1.00;;;17.50;72.50;;;;;;4799683;29;20306;-30
2023/09/24 11:33:27;;;;;;;1.77;1.10;;;17.50;72.40;;;;;;4782948;29;20240;-30
2023/09/24 11:35:57;;;;;;;6.63;1.37;;;17.60;72.40;;;;;;4798170;29;20459;-30
2023/09/24 11:38:38;;;;;;;5.77;1.13;;;17.60;72.40;;;;;;4812904;29;20201;-30
2023/09/24 11:41:11;;;;;;;3.80;1.30;;;17.60;72.10;;;;;;4813279;29;20221;-30
2023/09/24 11:43:43;;;;;;;4.27;1.20;;;17.60;72.10;;;;;;4798479;29;20468;-30
2023/09/24 11:46:21;;;;;;;2.97;1.50;;;17.70;72.10;;;;;;4799512;29;20619;-30
2023/09/24 11:48:49;;;;;;;4.27;1.30;;;17.70;71.90;;;;;;4799082;29;20496;-30
2023/09/24 11:51:20;;;;;;;2.80;1.00;;;17.70;72.10;;;;;;4797665;29;20231;-30
2023/09/24 11:53:50;;;;;;;2.67;1.17;;;17.80;71.80;;;;;;4797652;29;20758;-30
2023/09/24 11:56:17;;;;;;;3.73;1.10;;;17.80;71.50;;;;;;4812632;29;20209;-29
2023/09/24 11:58:47;;;;;;;3.87;1.20;;;17.80;71.70;;;;;;4799063;29;20217;-30
2023/09/24 12:01:17;;;;;;;2.60;1.20;;;17.90;71.80;;;;;;4812513;29;20240;-30
2023/09/24 12:03:45;;;;;;;2.40;1.10;;;17.90;71.60;;;;;;4797770;29;20798;-30
2023/09/24 12:06:13;;;;;;;4.27;1.00;;;17.90;71.70;;;;;;4797622;29;20884;-30
2023/09/24 12:08:41;;;;;;;3.43;1.20;;;18.00;71.60;;;;;;4797549;29;20580;-30
2023/09/24 12:11:09;;;;;;;1.97;1.10;;;18.00;71.20;;;;;;4799010;29;20213;-30
2023/09/24 12:13:36;;;;;;;4.00;1.20;;;18.00;71.20;;;;;;4797021;29;20313;-30
2023/09/24 12:16:06;;;;;;;2.93;0.90;;;18.10;71.30;;;;;;4797147;29;20278;-30
2023/09/24 12:18:35;;;;;;;1.90;1.10;;;18.10;71.10;;;;;;4797872;29;20676;-30
2023/09/24 12:21:06;;;;;;;2.30;1.30;;;18.10;71.50;;;;;;4812832;29;20241;-30
2023/09/24 12:23:35;;;;;;;2.85;1.00;;;18.10;71.30;;;;;;4798867;29;20213;-30
2023/09/24 12:26:05;;;;;;;3.13;1.20;;;18.20;71.20;;;;;;4798779;29;20240;-30
2023/09/24 12:28:34;;;;;;;5.18;1.30;;;18.20;71.20;;;;;;4797766;29;20741;-30
2023/09/24 12:31:04;;;;;;;2.80;1.13;;;18.20;71.10;;;;;;4812186;29;20296;-30
2023/09/24 12:33:32;;;;;;;3.90;1.20;;;18.30;71.10;;;;;;4797340;29;20806;-30
2023/09/24 12:36:02;;;;;;;4.33;1.37;;;18.30;71.00;;;;;;4799124;29;20201;-29
2023/09/24 12:38:29;;;;;;;4.40;1.20;;;18.30;70.80;;;;;;4812590;29;20650;-30
2023/09/24 12:40:56;;;;;;;3.85;1.30;;;18.30;70.90;;;;;;4798639;29;20780;-29
2023/09/24 12:43:26;;;;;;;3.07;1.30;;;18.40;70.90;;;;;;4797237;29;20255;-30
2023/09/24 12:45:54;;;;;;;8.25;1.20;;;18.40;70.80;;;;;;4812006;29;21050;-30
2023/09/24 12:48:24;;;;;;;2.97;1.10;;;18.40;71.00;;;;;;4798409;29;20227;-29
2023/09/24 12:50:52;;;;;;;3.08;0.90;;;18.50;70.90;;;;;;4797496;29;20832;-30
2023/09/24 12:53:22;;;;;;;2.53;1.03;;;18.50;70.90;;;;;;4797278;29;20243;-30
2023/09/24 12:55:49;;;;;;;4.38;1.20;;;18.50;71.80;;;;;;4798941;29;20695;-30
2023/09/24 12:58:18;;;;;;;2.05;1.00;;;18.60;71.60;;;;;;4812540;29;20205;-30
2023/09/24 13:00:50;;;;;;;2.42;1.27;;;18.60;70.90;;;;;;4798662;29;20209;-30